Time;durP1;ratioP1;P1;durP2;ratioP2;P2;SDS_P1;SDS_P2;PMS_P1;PMS_P2;Temp;Humidity;BMP_temperature;BMP_pressure;BME280_temperature;BME280_humidity;BME280_pressure;Samples;Min_cycle;Max_cycle;Signal;HPM_P1;HPM_P2
2024/01/12 00:00:42;;;;;;;3.83;2.35;;;;;;;-4.33;100.00;102825.50;5079795;28;20086;-70
2024/01/12 00:03:08;;;;;;;2.97;1.83;;;;;;;-4.28;100.00;102828.81;5088576;28;20043;-70
2024/01/12 00:05:33;;;;;;;4.90;2.42;;;;;;;-4.29;100.00;102822.69;5054933;28;20024;-70
2024/01/12 00:07:58;;;;;;;7.95;3.63;;;;;;;-4.36;100.00;102828.22;5086970;28;20028;-70
2024/01/12 00:10:24;;;;;;;6.78;4.45;;;;;;;-4.45;100.00;102826.75;5071335;28;20048;-70
2024/01/12 00:12:51;;;;;;;8.75;4.82;;;;;;;-4.47;100.00;102819.84;5087959;28;20020;-70
2024/01/12 00:15:17;;;;;;;9.13;5.80;;;;;;;-4.49;100.00;102819.91;5071572;28;20032;-70
2024/01/12 00:17:42;;;;;;;8.23;4.80;;;;;;;-4.44;100.00;102820.59;5087571;28;20042;-70
2024/01/12 00:20:08;;;;;;;11.07;5.78;;;;;;;-4.39;100.00;102823.06;5071883;28;20032;-69
2024/01/12 00:22:34;;;;;;;23.65;11.30;;;;;;;-4.38;100.00;102815.13;5070600;28;20031;-70
2024/01/12 00:24:59;;;;;;;19.83;10.43;;;;;;;-4.34;100.00;102814.13;5087674;28;20119;-70
2024/01/12 00:27:25;;;;;;;22.90;11.00;;;;;;;-4.31;100.00;102813.13;5070447;28;20079;-70
2024/01/12 00:29:50;;;;;;;35.30;17.60;;;;;;;-4.32;100.00;102814.06;5071792;28;20040;-69
2024/01/12 00:32:16;;;;;;;32.42;15.68;;;;;;;-4.26;100.00;102796.31;5070805;28;20028;-70
2024/01/12 00:34:41;;;;;;;26.83;12.50;;;;;;;-4.32;100.00;102793.88;5071145;28;20136;-69
2024/01/12 00:37:06;;;;;;;24.20;12.35;;;;;;;-4.35;100.00;102795.78;5070625;28;20517;-69
2024/01/12 00:39:32;;;;;;;16.55;9.02;;;;;;;-4.39;100.00;102796.78;5054669;28;20495;-70
2024/01/12 00:41:58;;;;;;;15.50;7.40;;;;;;;-4.47;100.00;102776.03;5072252;28;20107;-69
2024/01/12 00:44:24;;;;;;;15.35;7.20;;;;;;;-4.25;100.00;102777.00;5079876;28;20559;-69
2024/01/12 00:46:51;;;;;;;11.32;4.70;;;;;;;-4.13;100.00;102775.69;5089586;28;20032;-69
2024/01/12 00:49:20;;;;;;;5.15;2.45;;;;;;;-3.96;100.00;102785.59;5088825;28;20233;-69
2024/01/12 00:51:46;;;;;;;14.02;5.75;;;;;;;-3.91;100.00;102777.53;5055883;28;20025;-69
2024/01/12 00:54:11;;;;;;;7.35;1.77;;;;;;;-3.76;100.00;102761.19;5072756;28;20032;-70
2024/01/12 00:56:37;;;;;;;7.20;3.33;;;;;;;-3.46;100.00;102751.25;5054488;28;20510;-70
2024/01/12 00:59:03;;;;;;;16.75;8.82;;;;;;;-3.49;100.00;102751.34;5070738;28;20039;-70
2024/01/12 01:01:28;;;;;;;10.10;5.63;;;;;;;-3.70;100.00;102744.31;5071054;28;20494;-69
2024/01/12 01:03:54;;;;;;;9.05;5.40;;;;;;;-3.44;100.00;102749.41;5071435;28;20036;-70
2024/01/12 01:06:19;;;;;;;14.35;6.85;;;;;;;-3.50;100.00;102730.38;5054019;28;20036;-69
2024/01/12 01:08:45;;;;;;;7.50;3.13;;;;;;;-3.49;100.00;102732.09;5054399;28;20082;-69
2024/01/12 01:11:11;;;;;;;6.13;2.95;;;;;;;-3.40;100.00;102734.34;5086957;28;20032;-70
2024/01/12 01:13:36;;;;;;;6.97;3.92;;;;;;;-3.28;100.00;102747.00;5070243;28;20123;-70
2024/01/12 01:16:03;;;;;;;8.15;2.90;;;;;;;-3.40;100.00;102711.53;5070036;28;20020;-70
2024/01/12 01:18:30;;;;;;;2.95;1.70;;;;;;;-3.08;100.00;102740.94;5071751;28;20061;-70
2024/01/12 01:20:57;;;;;;;5.25;1.77;;;;;;;-3.00;100.00;102733.59;5057855;28;20056;-70
2024/01/12 01:23:22;;;;;;;4.47;1.90;;;;;;;-2.88;100.00;102748.88;5092248;28;20024;-70
2024/01/12 01:25:50;;;;;;;2.70;1.52;;;;;;;-2.84;100.00;102742.56;5082136;28;20037;-67
2024/01/12 01:28:15;;;;;;;4.88;2.35;;;;;;;-2.68;100.00;102766.47;5061165;28;20027;-69
2024/01/12 01:30:40;;;;;;;4.65;1.80;;;;;;;-2.70;100.00;102754.28;5057379;28;20028;-69
2024/01/12 01:33:06;;;;;;;4.47;1.70;;;;;;;-2.65;100.00;102753.19;5073409;28;20472;-70
2024/01/12 01:35:32;;;;;;;6.78;1.60;;;;;;;-2.69;100.00;102732.28;5074320;28;20032;-70
2024/01/12 01:37:58;;;;;;;2.95;1.30;;;;;;;-2.73;100.00;102733.34;5074116;28;20025;-70
2024/01/12 01:40:24;;;;;;;2.72;1.52;;;;;;;-2.70;100.00;102730.56;5074041;28;20029;-70
2024/01/12 01:42:49;;;;;;;3.10;1.65;;;;;;;-2.67;100.00;102735.72;5074526;28;20494;-70
2024/01/12 01:45:15;;;;;;;4.00;1.70;;;;;;;-2.60;100.00;102742.44;5074949;28;20056;-71
2024/01/12 01:47:41;;;;;;;4.70;2.78;;;;;;;-2.60;100.00;102726.63;5075159;28;20052;-70
2024/01/12 01:50:10;;;;;;;4.95;2.97;;;;;;;-2.47;100.00;102724.31;5073581;28;20020;-70
2024/01/12 01:52:36;;;;;;;7.72;2.70;;;;;;;-2.53;100.00;102682.41;5074013;28;20128;-70
2024/01/12 01:55:01;;;;;;;3.97;2.42;;;;;;;-2.35;100.00;102710.59;5073530;28;20097;-70
2024/01/12 01:57:27;;;;;;;5.70;2.22;;;;;;;-2.45;100.00;102723.31;5075271;28;20106;-70
2024/01/12 01:59:54;;;;;;;8.80;4.93;;;;;;;-2.81;100.00;102690.63;5074426;28;20120;-70
2024/01/12 02:02:21;;;;;;;7.28;4.50;;;;;;;-2.83;100.00;102715.28;5074671;28;20021;-70
2024/01/12 02:04:47;;;;;;;10.93;5.55;;;;;;;-2.84;100.00;102712.72;5074506;28;20032;-70
2024/01/12 02:07:12;;;;;;;10.85;5.38;;;;;;;-2.90;100.00;102705.94;5074877;28;20028;-70
2024/01/12 02:09:38;;;;;;;6.75;3.97;;;;;;;-3.04;100.00;102681.97;5093047;28;20028;-70
2024/01/12 02:12:04;;;;;;;6.80;4.43;;;;;;;-2.73;100.00;102707.84;5079472;28;20048;-70
2024/01/12 02:14:32;;;;;;;7.18;4.40;;;;;;;-2.77;100.00;102708.91;5073305;28;20032;-70
2024/01/12 02:16:57;;;;;;;13.20;4.10;;;;;;;-2.71;100.00;102684.94;5056391;28;20035;-70
2024/01/12 02:19:23;;;;;;;9.48;3.75;;;;;;;-2.55;100.00;102698.28;5072978;28;20595;-70
2024/01/12 02:21:50;;;;;;;7.95;3.97;;;;;;;-2.49;100.00;102697.16;5073309;28;20116;-70
2024/01/12 02:24:16;;;;;;;4.60;3.17;;;;;;;-2.36;100.00;102707.06;5090121;28;20059;-70
2024/01/12 02:26:41;;;;;;;5.80;3.67;;;;;;;-2.30;100.00;102699.81;5074075;28;20052;-70
2024/01/12 02:29:07;;;;;;;6.55;3.58;;;;;;;-2.28;100.00;102700.63;5056339;28;20119;-70
2024/01/12 02:31:34;;;;;;;14.38;6.05;;;;;;;-2.32;100.00;102693.75;5072864;28;20112;-71
2024/01/12 02:33:59;;;;;;;10.50;6.07;;;;;;;-2.45;100.00;102681.16;5072560;28;20052;-70
2024/01/12 02:36:26;;;;;;;10.27;5.95;;;;;;;-2.38;100.00;102668.53;5073942;28;20074;-70
2024/01/12 02:38:51;;;;;;;8.75;4.90;;;;;;;-2.32;100.00;102675.28;5073020;28;20028;-70
2024/01/12 02:41:18;;;;;;;8.25;5.22;;;;;;;-2.29;100.00;102667.25;5089537;28;20448;-70
2024/01/12 02:43:44;;;;;;;7.50;5.13;;;;;;;-2.44;100.00;102629.28;5055726;28;20032;-70
2024/01/12 02:46:10;;;;;;;9.38;5.28;;;;;;;-2.26;100.00;102661.84;5089413;28;20025;-69
2024/01/12 02:48:36;;;;;;;8.77;5.35;;;;;;;-2.15;100.00;102662.22;5072951;28;20170;-70
2024/01/12 02:51:02;;;;;;;9.15;5.28;;;;;;;-2.12;100.00;102648.84;5072440;28;20032;-70
2024/01/12 02:53:27;;;;;;;10.73;5.70;;;;;;;-2.39;100.00;102607.03;5072992;28;20036;-70
2024/01/12 02:55:52;;;;;;;12.60;5.78;;;;;;;-2.35;100.00;102610.41;5072549;28;20032;-71
2024/01/12 02:58:18;;;;;;;9.40;5.05;;;;;;;-2.10;100.00;102659.34;5088538;28;20732;-70
2024/01/12 03:00:44;;;;;;;8.55;5.00;;;;;;;-2.07;100.00;102662.69;5089559;28;20040;-70
2024/01/12 03:03:09;;;;;;;10.35;6.35;;;;;;;-2.21;100.00;102644.03;5073263;28;20024;-70
2024/01/12 03:05:35;;;;;;;10.15;6.85;;;;;;;-2.23;100.00;102645.88;5055813;28;20086;-70
2024/01/12 03:08:00;;;;;;;12.52;6.32;;;;;;;-2.27;100.00;102620.59;5070986;28;20066;-69
2024/01/12 03:10:26;;;;;;;10.77;6.22;;;;;;;-2.46;100.00;102591.56;5089135;28;20039;-70
2024/01/12 03:12:51;;;;;;;10.13;5.85;;;;;;;-2.31;100.00;102616.38;5071631;28;20028;-69
2024/01/12 03:15:16;;;;;;;8.45;5.68;;;;;;;-2.29;100.00;102635.59;5072334;28;20040;-70
2024/01/12 03:17:42;;;;;;;9.73;6.47;;;;;;;-2.32;100.00;102633.13;5072150;28;20037;-70
2024/01/12 03:20:08;;;;;;;10.38;6.55;;;;;;;-2.40;100.00;102636.97;5072492;28;20111;-70
2024/01/12 03:22:35;;;;;;;11.43;6.93;;;;;;;-2.48;100.00;102630.34;5071348;28;20032;-70
2024/01/12 03:25:00;;;;;;;10.20;5.68;;;;;;;-2.45;100.00;102628.41;5071362;28;20078;-70
2024/01/12 03:27:27;;;;;;;11.50;5.80;;;;;;;-2.54;100.00;102599.84;5089113;28;20028;-70
2024/01/12 03:29:52;;;;;;;9.88;5.90;;;;;;;-2.38;100.00;102615.81;5073117;28;20029;-70
2024/01/12 03:32:22;;;;;;;11.43;5.57;;;;;;;-2.42;100.00;102617.75;5071719;28;20044;-69
2024/01/12 03:34:48;;;;;;;10.82;5.30;;;;;;;-2.37;100.00;102628.06;5071022;28;20092;-69
2024/01/12 03:37:13;;;;;;;9.25;5.30;;;;;;;-2.36;100.00;102621.84;5072287;28;20060;-69
2024/01/12 03:39:39;;;;;;;7.55;4.35;;;;;;;-2.35;100.00;102626.22;5054625;28;20459;-70
2024/01/12 03:42:04;;;;;;;7.40;3.55;;;;;;;-2.27;100.00;102605.63;5088398;28;20028;-70
2024/01/12 03:44:30;;;;;;;7.47;3.80;;;;;;;-2.88;100.00;102490.72;5071378;28;20033;-70
2024/01/12 03:46:56;;;;;;;7.28;3.30;;;;;;;-2.11;100.00;102597.00;5071837;28;20376;-70
2024/01/12 03:49:22;;;;;;;4.85;3.03;;;;;;;-2.08;100.00;102605.63;5073224;28;20029;-69
2024/01/12 03:51:53;;;;;;;4.05;2.42;;;;;;;-2.01;100.00;102603.53;5071884;28;20029;-70
2024/01/12 03:54:22;;;;;;;6.35;3.40;;;;;;;-2.06;100.00;102603.75;5088442;28;20016;-70
2024/01/12 03:56:47;;;;;;;6.95;3.42;;;;;;;-2.11;100.00;102587.28;5073004;28;20020;-70
2024/01/12 03:59:12;;;;;;;6.00;3.60;;;;;;;-2.36;100.00;102551.53;5088089;28;20119;-70
2024/01/12 04:01:42;;;;;;;6.65;3.65;;;;;;;-2.25;100.00;102582.69;5071239;28;20043;-70
2024/01/12 04:04:08;;;;;;;4.93;3.00;;;;;;;-2.30;100.00;102584.66;5086549;28;20033;-70
2024/01/12 04:06:33;;;;;;;5.80;3.10;;;;;;;-2.32;100.00;102578.59;5070980;28;20028;-70
2024/01/12 04:08:58;;;;;;;10.00;4.00;;;;;;;-2.45;100.00;102580.09;5054766;28;20471;-70
2024/01/12 04:11:24;;;;;;;5.22;3.17;;;;;;;-2.58;100.00;102566.66;5071613;28;20085;-69
2024/01/12 04:13:49;;;;;;;9.05;4.10;;;;;;;-2.64;100.00;102567.78;5071114;28;20115;-70
2024/01/12 04:16:15;;;;;;;5.32;3.33;;;;;;;-2.74;100.00;102566.50;5054134;28;20035;-70
2024/01/12 04:18:41;;;;;;;7.50;4.10;;;;;;;-2.90;100.00;102539.97;5072197;28;20059;-69
2024/01/12 04:21:06;;;;;;;7.82;3.25;;;;;;;-2.86;100.00;102559.97;5070503;28;20040;-70
2024/01/12 04:23:32;;;;;;;6.85;3.38;;;;;;;-2.95;100.00;102557.75;5072066;28;20035;-70
2024/01/12 04:25:57;;;;;;;6.82;3.25;;;;;;;-2.98;100.00;102557.03;5070923;28;20047;-70
2024/01/12 04:28:23;;;;;;;6.10;3.42;;;;;;;-3.08;100.00;102564.50;5054252;28;20016;-69
2024/01/12 04:30:48;;;;;;;5.43;3.45;;;;;;;-3.16;100.00;102561.34;5071234;28;20040;-69
2024/01/12 04:33:14;;;;;;;5.43;2.85;;;;;;;-3.19;100.00;102557.06;5070130;28;20030;-69
2024/01/12 04:35:39;;;;;;;4.82;2.90;;;;;;;-3.25;100.00;102552.06;5053755;28;20059;-69
2024/01/12 04:38:05;;;;;;;7.05;2.33;;;;;;;-3.32;100.00;102554.13;5070512;28;20033;-69
2024/01/12 04:40:30;;;;;;;8.00;2.35;;;;;;;-3.39;100.00;102552.66;5070569;28;20477;-69
2024/01/12 04:42:56;;;;;;;5.72;2.63;;;;;;;-3.43;100.00;102558.16;5070667;28;20024;-69
2024/01/12 04:45:21;;;;;;;6.05;3.30;;;;;;;-3.47;100.00;102560.06;5070166;28;20123;-70
2024/01/12 04:47:46;;;;;;;7.10;3.28;;;;;;;-3.47;100.00;102554.78;5087906;28;20093;-69
2024/01/12 04:50:11;;;;;;;9.15;3.88;;;;;;;-3.52;100.00;102551.50;5071827;28;20032;-69
2024/01/12 04:52:37;;;;;;;6.03;3.72;;;;;;;-3.58;100.00;102546.47;5072561;28;20035;-69
2024/01/12 04:55:02;;;;;;;6.60;3.47;;;;;;;-3.63;100.00;102535.31;5072511;28;20096;-69
2024/01/12 04:57:28;;;;;;;6.32;4.03;;;;;;;-3.69;100.00;102527.66;5056710;28;20032;-69
2024/01/12 04:59:53;;;;;;;6.72;4.45;;;;;;;-3.69;100.00;102525.03;5074970;28;20036;-69
2024/01/12 05:02:20;;;;;;;6.55;3.83;;;;;;;-3.71;100.00;102518.97;5075840;28;20040;-69
2024/01/12 05:04:46;;;;;;;6.93;3.72;;;;;;;-3.70;100.00;102518.94;5075235;28;20037;-69
2024/01/12 05:07:11;;;;;;;5.28;3.25;;;;;;;-3.71;100.00;102522.47;5058484;28;20034;-70
2024/01/12 05:09:36;;;;;;;8.63;3.88;;;;;;;-3.80;100.00;102525.50;5076580;28;20170;-70
2024/01/12 05:12:04;;;;;;;8.98;3.60;;;;;;;-3.86;100.00;102505.56;5073507;28;20039;-69
2024/01/12 05:14:31;;;;;;;5.38;3.55;;;;;;;-3.84;100.00;102503.72;5056928;28;20028;-68
2024/01/12 05:16:56;;;;;;;8.43;3.17;;;;;;;-3.89;100.00;102499.56;5073746;28;20363;-69
2024/01/12 05:19:22;;;;;;;4.70;2.92;;;;;;;-3.94;100.00;102496.28;5075487;28;20046;-69
2024/01/12 05:21:47;;;;;;;4.82;3.00;;;;;;;-4.01;100.00;102479.88;5075081;28;20536;-69
2024/01/12 05:24:12;;;;;;;5.15;2.42;;;;;;;-3.95;100.00;102463.88;5090550;28;20123;-69
2024/01/12 05:26:38;;;;;;;3.65;2.22;;;;;;;-3.90;100.00;102458.44;5074462;28;20024;-68
2024/01/12 05:29:03;;;;;;;6.22;3.00;;;;;;;-3.86;100.00;102447.69;5073581;28;20045;-69
2024/01/12 05:31:28;;;;;;;2.92;1.80;;;;;;;-3.91;100.00;102441.78;5072781;28;20399;-69
2024/01/12 05:33:54;;;;;;;3.33;2.05;;;;;;;-3.87;100.00;102440.75;5056379;28;20109;-69
2024/01/12 05:36:20;;;;;;;5.38;1.70;;;;;;;-4.05;100.00;102399.44;5074315;28;20027;-69
2024/01/12 05:38:45;;;;;;;4.25;1.98;;;;;;;-3.92;100.00;102439.22;5074683;28;20383;-69
2024/01/12 05:41:10;;;;;;;4.32;2.03;;;;;;;-4.24;100.00;102430.91;5073709;28;20487;-69
2024/01/12 05:43:36;;;;;;;7.28;2.90;;;;;;;-4.35;100.00;102417.34;5073522;28;20036;-71
2024/01/12 05:46:01;;;;;;;6.40;2.75;;;;;;;-4.47;100.00;102410.81;5073215;28;20028;-69
2024/01/12 05:48:27;;;;;;;4.60;2.30;;;;;;;-4.52;100.00;102423.31;5072901;28;20028;-70
2024/01/12 05:50:52;;;;;;;4.75;1.60;;;;;;;-4.51;100.00;102411.88;5072543;28;20033;-68
2024/01/12 05:53:21;;;;;;;4.50;1.80;;;;;;;-4.48;100.00;102430.13;5071543;28;20082;-69
2024/01/12 05:55:48;;;;;;;4.93;1.75;;;;;;;-4.50;100.00;102442.50;5056793;28;20056;-69
2024/01/12 05:58:13;;;;;;;3.40;2.10;;;;;;;-4.51;100.00;102438.13;5087979;28;20086;-69
2024/01/12 06:00:39;;;;;;;5.28;2.85;;;;;;;-4.50;100.00;102426.75;5073327;28;20032;-70
2024/01/12 06:03:05;;;;;;;4.68;3.10;;;;;;;-4.53;100.00;102427.72;5074134;28;20082;-70
2024/01/12 06:05:31;;;;;;;4.35;2.30;;;;;;;-4.49;100.00;102436.31;5073292;28;20024;-70
2024/01/12 06:07:56;;;;;;;4.25;2.30;;;;;;;-4.40;100.00;102445.59;5074341;28;20031;-69
2024/01/12 06:10:21;;;;;;;4.72;2.08;;;;;;;-4.34;100.00;102455.84;5072160;28;20100;-69
2024/01/12 06:12:47;;;;;;;3.70;1.95;;;;;;;-4.31;100.00;102451.31;5071040;28;20028;-69
2024/01/12 06:15:12;;;;;;;4.63;2.25;;;;;;;-4.34;100.00;102455.84;5070874;28;20037;-69
2024/01/12 06:17:38;;;;;;;5.70;2.80;;;;;;;-4.39;100.00;102463.94;5071659;28;20029;-69
2024/01/12 06:20:03;;;;;;;3.17;2.20;;;;;;;-4.52;100.00;102457.47;5073671;28;20036;-69
2024/01/12 06:22:28;;;;;;;8.75;3.60;;;;;;;-4.66;100.00;102444.88;5075028;28;20028;-70
2024/01/12 06:24:54;;;;;;;5.53;2.72;;;;;;;-4.75;100.00;102419.81;5073825;28;20025;-69
2024/01/12 06:27:19;;;;;;;7.93;4.53;;;;;;;-4.73;100.00;102419.78;5071832;28;20039;-69
2024/01/12 06:29:45;;;;;;;7.25;3.90;;;;;;;-4.72;100.00;102418.84;5055483;28;20094;-69
2024/01/12 06:32:10;;;;;;;11.90;7.88;;;;;;;-4.74;100.00;102418.88;5055935;28;20037;-68
2024/01/12 06:34:39;;;;;;;7.40;4.00;;;;;;;-4.86;100.00;102415.91;5074037;28;20053;-69
2024/01/12 06:37:04;;;;;;;8.43;3.50;;;;;;;-4.74;100.00;102424.16;5072033;28;20032;-69
2024/01/12 06:39:30;;;;;;;5.63;2.88;;;;;;;-4.67;100.00;102413.41;5073362;28;20032;-69
2024/01/12 06:41:56;;;;;;;6.45;3.80;;;;;;;-4.68;100.00;102414.31;5071766;28;20037;-70
2024/01/12 06:44:21;;;;;;;3.92;2.30;;;;;;;-4.72;100.00;102421.47;5071122;28;20032;-69
2024/01/12 06:46:48;;;;;;;4.40;2.20;;;;;;;-4.84;100.00;102416.69;5071904;28;20623;-69
2024/01/12 06:49:13;;;;;;;4.13;2.45;;;;;;;-4.92;100.00;102416.16;5071839;28;20203;-69
2024/01/12 06:51:39;;;;;;;5.18;2.58;;;;;;;-4.84;100.00;102406.19;5088493;28;20094;-69
2024/01/12 06:54:04;;;;;;;9.32;2.60;;;;;;;-4.89;100.00;102413.41;5071777;28;20028;-70
2024/01/12 06:56:30;;;;;;;4.80;2.25;;;;;;;-4.97;100.00;102413.69;5071561;28;20032;-70
2024/01/12 06:58:56;;;;;;;6.15;2.17;;;;;;;-4.99;100.00;102410.28;5071854;28;20112;-69
2024/01/12 07:01:21;;;;;;;4.00;2.38;;;;;;;-5.05;100.00;102394.78;5072250;28;20115;-69
2024/01/12 07:03:46;;;;;;;3.22;2.10;;;;;;;-5.27;100.00;102361.47;5072337;28;20123;-70
2024/01/12 07:06:12;;;;;;;5.20;2.30;;;;;;;-5.23;100.00;102365.72;5073005;28;20033;-69
2024/01/12 07:08:37;;;;;;;4.28;2.33;;;;;;;-5.04;100.00;102401.72;5073053;28;20031;-69
2024/01/12 07:11:04;;;;;;;3.38;2.10;;;;;;;-5.40;100.00;102383.84;5054754;28;20407;-68
2024/01/12 07:13:29;;;;;;;7.40;4.20;;;;;;;-5.36;100.00;102402.94;5072890;28;20112;-69
2024/01/12 07:15:55;;;;;;;10.50;4.10;;;;;;;-5.50;100.00;102411.31;5054605;28;20123;-69
2024/01/12 07:18:20;;;;;;;6.53;4.07;;;;;;;-5.59;100.00;102409.06;5070605;28;20035;-68
2024/01/12 07:20:45;;;;;;;8.20;4.93;;;;;;;-5.61;100.00;102405.63;5071678;28;20133;-69
2024/01/12 07:23:11;;;;;;;10.85;8.18;;;;;;;-5.70;100.00;102401.56;5072029;28;20028;-69
2024/01/12 07:25:38;;;;;;;12.55;8.10;;;;;;;-5.69;100.00;102388.41;5071224;28;20482;-68
2024/01/12 07:28:07;;;;;;;8.68;5.40;;;;;;;-5.49;100.00;102415.69;5055895;28;20024;-69
2024/01/12 07:30:33;;;;;;;10.80;5.32;;;;;;;-5.53;100.00;102382.56;5071523;28;20103;-69
2024/01/12 07:32:59;;;;;;;8.88;5.63;;;;;;;-5.52;100.00;102379.91;5072514;28;20115;-69
2024/01/12 07:35:24;;;;;;;15.43;8.45;;;;;;;-5.47;100.00;102366.63;5072074;28;20094;-69
2024/01/12 07:37:50;;;;;;;9.77;4.45;;;;;;;-5.33;100.00;102411.56;5071957;28;20677;-69
2024/01/12 07:40:16;;;;;;;6.35;4.20;;;;;;;-5.34;100.00;102407.22;5069071;28;20443;-70
2024/01/12 07:42:42;;;;;;;11.25;3.53;;;;;;;-5.28;100.00;102399.13;5087919;28;20036;-69
2024/01/12 07:45:08;;;;;;;8.70;3.50;;;;;;;-5.15;100.00;102390.78;5071848;28;20024;-69
2024/01/12 07:47:34;;;;;;;10.75;3.75;;;;;;;-5.07;100.00;102391.34;5070542;28;20379;-69
2024/01/12 07:49:59;;;;;;;9.73;3.95;;;;;;;-5.04;100.00;102388.59;5053876;28;20487;-70
2024/01/12 07:52:25;;;;;;;8.85;3.50;;;;;;;-5.01;100.00;102375.34;5087232;28;20127;-69
2024/01/12 07:54:50;;;;;;;12.07;4.45;;;;;;;-5.18;100.00;102341.06;5054511;28;20123;-69
2024/01/12 07:57:16;;;;;;;12.52;6.60;;;;;;;-4.94;100.00;102363.69;5071193;28;20036;-70
2024/01/12 07:59:41;;;;;;;10.57;6.65;;;;;;;-5.12;100.00;102373.16;5071158;28;20043;-69
2024/01/12 08:02:06;;;;;;;10.70;5.38;;;;;;;-5.50;100.00;102379.84;5053696;28;20028;-69
2024/01/12 08:04:32;;;;;;;12.68;7.30;;;;;;;-5.45;100.00;102375.28;5087883;28;20033;-69
2024/01/12 08:06:57;;;;;;;10.02;6.05;;;;;;;-5.46;100.00;102378.84;5070428;28;20437;-69
2024/01/12 08:09:23;;;;;;;18.00;8.88;;;;;;;-5.43;100.00;102389.19;5070698;28;20686;-70
2024/01/12 08:11:48;;;;;;;10.77;6.63;;;;;;;-5.41;100.00;102391.78;5070782;28;20051;-70
2024/01/12 08:14:14;;;;;;;12.85;6.22;;;;;;;-5.51;100.00;102386.00;5054790;28;20024;-67
2024/01/12 08:16:39;;;;;;;9.25;6.53;;;;;;;-5.45;100.00;102386.63;5053580;28;20028;-69
2024/01/12 08:19:05;;;;;;;13.60;9.32;;;;;;;-5.40;100.00;102377.72;5087060;28;20039;-69
2024/01/12 08:21:31;;;;;;;18.92;10.18;;;;;;;-5.33;100.00;102368.72;5072725;28;20039;-69
2024/01/12 08:23:56;;;;;;;11.82;7.45;;;;;;;-5.32;100.00;102359.97;5070983;28;20024;-69
2024/01/12 08:26:21;;;;;;;11.50;6.78;;;;;;;-5.34;100.00;102357.38;5072037;28;20704;-69
2024/01/12 08:28:51;;;;;;;17.80;9.07;;;;;;;-5.32;100.00;102363.44;5054034;28;20028;-69
2024/01/12 08:31:18;;;;;;;27.42;13.98;;;;;;;-5.44;100.00;102371.75;5075098;28;20106;-69
2024/01/12 08:33:48;;;;;;;26.67;17.40;;;;;;;-5.52;100.00;102361.56;5091198;28;20071;-69
2024/01/12 08:36:13;;;;;;;14.95;8.02;;;;;;;-5.45;100.00;102344.66;5056631;28;20173;-69
2024/01/12 08:38:40;;;;;;;12.13;7.65;;;;;;;-5.34;100.00;102341.63;5075198;28;20123;-69
2024/01/12 08:41:06;;;;;;;15.30;7.00;;;;;;;-5.28;100.00;102336.16;5074810;28;20021;-69
2024/01/12 08:43:32;;;;;;;63.58;31.40;;;;;;;-5.28;100.00;102338.78;5074159;28;20032;-69
2024/01/12 08:45:57;;;;;;;32.00;19.25;;;;;;;-5.18;100.00;102352.41;5058065;28;20036;-69
2024/01/12 08:48:22;;;;;;;22.27;12.68;;;;;;;-5.10;100.00;102349.47;5075572;28;20036;-69
2024/01/12 08:50:48;;;;;;;15.77;8.27;;;;;;;-5.10;100.00;102350.34;5075839;28;20043;-69
2024/01/12 08:53:14;;;;;;;24.02;14.52;;;;;;;-5.08;100.00;102345.88;5075865;28;20121;-70
2024/01/12 08:55:39;;;;;;;25.70;17.60;;;;;;;-5.23;100.00;102305.34;5074721;28;20030;-69
2024/01/12 08:58:05;;;;;;;29.88;18.40;;;;;;;-4.99;100.00;102344.66;5075230;28;20405;-69
2024/01/12 09:00:30;;;;;;;15.05;10.48;;;;;;;-4.99;100.00;102337.63;5074258;28;20031;-69
2024/01/12 09:02:55;;;;;;;10.80;5.65;;;;;;;-5.14;100.00;102338.22;5075588;28;20033;-69
2024/01/12 09:05:22;;;;;;;9.77;5.88;;;;;;;-5.21;100.00;102334.16;5073650;28;20031;-70
2024/01/12 09:07:47;;;;;;;7.93;5.32;;;;;;;-5.22;100.00;102335.91;5057704;28;20115;-69
2024/01/12 09:10:13;;;;;;;9.88;5.22;;;;;;;-5.29;100.00;102329.22;5073594;28;20052;-69
2024/01/12 09:12:38;;;;;;;8.82;5.72;;;;;;;-5.32;100.00;102324.06;5074933;28;20079;-69
2024/01/12 09:15:07;;;;;;;12.77;6.00;;;;;;;-5.43;100.00;102295.63;5090675;28;20063;-69
2024/01/12 09:17:35;;;;;;;11.63;6.15;;;;;;;-5.13;100.00;102342.59;5075140;28;20035;-69
2024/01/12 09:20:00;;;;;;;9.98;5.28;;;;;;;-5.06;100.00;102349.31;5074142;28;20036;-69
2024/01/12 09:22:25;;;;;;;13.30;6.70;;;;;;;-5.02;100.00;102350.88;5090084;28;20020;-70
2024/01/12 09:24:51;;;;;;;12.40;7.00;;;;;;;-5.05;100.00;102356.25;5056904;28;20066;-70
2024/01/12 09:27:16;;;;;;;12.38;6.53;;;;;;;-4.94;100.00;102350.56;5073367;28;20032;-69
2024/01/12 09:29:41;;;;;;;15.25;7.45;;;;;;;-4.85;100.00;102360.72;5073399;28;20028;-69
2024/01/12 09:32:07;;;;;;;12.93;8.00;;;;;;;-4.77;100.00;102353.41;5073210;28;20025;-70
2024/01/12 09:34:32;;;;;;;16.48;8.88;;;;;;;-4.64;100.00;102352.88;5071994;28;20101;-70
2024/01/12 09:36:58;;;;;;;21.17;11.43;;;;;;;-4.57;100.00;102351.69;5072318;28;20111;-69
2024/01/12 09:39:24;;;;;;;17.77;10.25;;;;;;;-4.47;100.00;102355.66;5055900;28;20078;-70
2024/01/12 09:41:49;;;;;;;17.30;11.13;;;;;;;-4.43;100.00;102333.59;5072910;28;20059;-69
2024/01/12 09:44:22;;;;;;;33.58;22.45;;;;;;;-4.19;100.00;102351.88;5073058;28;20028;-70
2024/01/12 09:46:55;;;;;;;15.85;9.63;;;;;;;-4.18;100.00;102329.91;5074642;28;20028;-69
2024/01/12 09:49:23;;;;;;;25.77;16.35;;;;;;;-3.91;100.00;102355.00;5073854;28;20063;-69
2024/01/12 09:51:49;;;;;;;24.35;14.30;;;;;;;-3.78;100.00;102355.31;5073667;28;20032;-70
2024/01/12 09:54:19;;;;;;;15.38;9.38;;;;;;;-3.72;100.00;102351.56;5072869;28;20065;-71
2024/01/12 09:56:44;;;;;;;20.58;9.52;;;;;;;-3.65;100.00;102342.47;5074938;28;20112;-70
2024/01/12 09:59:11;;;;;;;17.30;10.75;;;;;;;-3.53;100.00;102352.44;5074087;28;20116;-69
2024/01/12 10:01:39;;;;;;;27.20;12.45;;;;;;;-3.44;100.00;102349.41;5074395;28;20475;-70
2024/01/12 10:04:04;;;;;;;20.77;12.27;;;;;;;-3.38;100.00;102361.41;5074089;28;20025;-70
2024/01/12 10:06:29;;;;;;;34.80;18.23;;;;;;;-3.34;100.00;102366.47;5074459;28;20061;-70
2024/01/12 10:08:55;;;;;;;28.80;17.25;;;;;;;-3.29;100.00;102357.50;5055860;28;20028;-69
2024/01/12 10:11:20;;;;;;;40.60;17.38;;;;;;;-3.24;100.00;102353.72;5072504;28;20032;-70
2024/01/12 10:13:47;;;;;;;39.60;19.52;;;;;;;-3.19;100.00;102341.19;5055973;28;20024;-70
2024/01/12 10:16:13;;;;;;;38.00;20.90;;;;;;;-3.15;100.00;102342.75;5072173;28;20028;-69
2024/01/12 10:18:38;;;;;;;23.70;14.23;;;;;;;-3.12;100.00;102326.81;5072536;28;20028;-69
2024/01/12 10:21:04;;;;;;;25.80;14.75;;;;;;;-3.06;100.00;102317.75;5072719;28;20036;-69
2024/01/12 10:23:30;;;;;;;22.30;12.98;;;;;;;-3.04;100.00;102318.56;5072863;28;20066;-70
2024/01/12 10:26:00;;;;;;;20.00;11.70;;;;;;;-3.01;100.00;102314.91;5073732;28;20040;-70
2024/01/12 10:28:29;;;;;;;17.77;10.43;;;;;;;-2.88;100.00;102318.63;5069035;28;20059;-70
2024/01/12 10:30:55;;;;;;;22.58;12.90;;;;;;;-2.75;100.00;102316.25;5071187;28;20081;-69
2024/01/12 10:33:20;;;;;;;18.30;9.65;;;;;;;-2.58;100.00;102318.06;5073001;28;20045;-69
2024/01/12 10:35:50;;;;;;;16.63;9.13;;;;;;;-2.40;100.00;102296.91;5071628;28;20379;-69
2024/01/12 10:38:16;;;;;;;13.23;8.48;;;;;;;-2.16;100.00;102294.78;5072974;28;20064;-69
2024/01/12 10:40:43;;;;;;;12.05;7.03;;;;;;;-2.05;100.00;102293.34;5073281;28;20063;-70
2024/01/12 10:43:13;;;;;;;15.90;7.53;;;;;;;-2.11;100.00;102249.72;5072974;28;20021;-69
2024/01/12 10:45:46;;;;;;;15.27;7.22;;;;;;;-1.77;100.00;102271.66;5088786;28;20025;-69
2024/01/12 10:48:17;;;;;;;14.43;8.38;;;;;;;-1.66;100.00;102272.78;5088908;28;20470;-69
2024/01/12 10:50:45;;;;;;;16.80;9.23;;;;;;;-1.71;100.00;102279.22;5073730;28;20033;-69
2024/01/12 10:53:18;;;;;;;15.73;9.85;;;;;;;-1.91;100.00;102267.13;5072508;28;20618;-69
2024/01/12 10:55:58;;;;;;;14.65;10.02;;;;;;;-2.17;100.00;102250.03;5072868;28;20394;-70
2024/01/12 10:58:24;;;;;;;22.90;11.13;;;;;;;-2.01;100.00;102277.31;5070736;28;20032;-69
2024/01/12 11:00:50;;;;;;;18.95;10.77;;;;;;;-1.92;100.00;102278.59;5054800;28;20043;-71
2024/01/12 11:03:16;;;;;;;16.48;9.55;;;;;;;-2.02;100.00;102251.88;5071974;28;20040;-70
2024/01/12 11:05:43;;;;;;;18.38;9.30;;;;;;;-1.86;100.00;102272.97;5071461;28;20032;-70